Seacod — DDPW — position and weather

sailwx.info

Track history (hours):
 
Tides and Currents Weather Stations Pressure Air Temp Water Temp Dewpoint Dewpoint Depression Visibility Wind Speed Wind Dir Waves Ship Positions

Seacod

Last reported at 2014-Nov-12 18:32 UTC. Time now 2014-Nov-23 01:00 UTC.
Position N 57°04' E 011°40'.
Warning: this ship's position is 10 days out of date.

Length 188 m; draft 7.3 m.

Type: Ship. MMSI: 218019000.

Date/timePositionNaut miles runAvg speedWind from/ knotsBaromVisibWave heightAir tempDewpointWater temp
2014-Nov-12 18:32N 57°04' E 011°40'10 8.6
2014-Nov-12 17:20N 57°14' E 011°33'7 8.7
2014-Nov-12 16:33N 57°20' E 011°29'10 9.6
2014-Nov-12 15:33N 57°29' E 011°21'1212.1
2014-Nov-12 14:33N 57°37' E 011°05'1312.6
2014-Nov-12 13:33N 57°46' E 010°48'1212.0
2014-Nov-12 12:33N 57°48' E 010°26'1212.4
2014-Nov-12 11:33N 57°48' E 010°03'16111.3
2014-Nov-11 21:15N 55°42' E 006°59'912.2
2014-Nov-11 20:33N 55°34' E 006°55'1212.2
2014-Nov-11 19:33N 55°22' E 006°50'1312.9
2014-Nov-11 18:33N 55°09' E 006°50'1312.9
2014-Nov-11 17:33N 54°56' E 006°51'1614.2
2014-Nov-11 16:27N 54°43' E 007°05'1314.4
2014-Nov-11 15:34N 54°32' E 007°17'1414.4
2014-Nov-11 14:33N 54°20' E 007°30'1413.7
2014-Nov-11 13:33N 54°10' E 007°46'1313.1
2014-Nov-11 12:33N 54°02' E 008°04'1212.1
2014-Nov-11 11:33N 53°59' E 008°24'1211.8
2014-Nov-11 10:34N 53°54' E 008°42'1514.5
2014-Nov-11 09:34N 53°53' E 009°06'1313.3
2014-Nov-11 08:33N 53°45' E 009°25'1515.2
2014-Nov-11 07:34N 53°34' E 009°42'9 9.3
2014-Nov-11 06:33N 53°31' E 009°57'1 0.7
2014-Nov-11 05:33N 53°30' E 009°58'0 0.0
2014-Nov-11 04:33N 53°30' E 009°58'0 0.0
2014-Nov-11 03:33N 53°30' E 009°58'0 0.0
2014-Nov-11 02:33N 53°30' E 009°58'0 0.0
2014-Nov-11 01:33N 53°30' E 009°58'0 0.0
2014-Nov-11 00:33N 53°30' E 009°58'0 0.0
2014-Nov-10 23:33N 53°30' E 009°58'0 0.0
2014-Nov-10 22:33N 53°30' E 009°58'0 0.0
2014-Nov-10 21:33N 53°30' E 009°58'0 0.0
2014-Nov-10 20:33N 53°30' E 009°58'0 0.0
2014-Nov-10 19:33N 53°30' E 009°58'0 0.0
2014-Nov-10 18:33N 53°30' E 009°58'0 0.0
2014-Nov-10 17:33N 53°30' E 009°58'0 0.4
2014-Nov-10 16:33N 53°30' E 009°57'0 0.0
2014-Nov-10 15:28N 53°30' E 009°57'0 0.0
2014-Nov-10 14:27N 53°30' E 009°57'0 0.0
2014-Nov-10 13:27N 53°30' E 009°57'0 0.0
2014-Nov-10 12:18N 53°30' E 009°57'0 0.0
2014-Nov-10 11:25N 53°30' E 009°57'0 0.0
2014-Nov-10 10:33N 53°30' E 009°57'0 0.0
2014-Nov-10 09:21N 53°30' E 009°57'0 0.0
2014-Nov-10 08:31N 53°30' E 009°57'0 0.0
2014-Nov-10 07:34N 53°30' E 009°57'0 0.0
2014-Nov-10 06:33N 53°30' E 009°57'0 0.0
2014-Nov-10 05:33N 53°30' E 009°57'0 0.0
2014-Nov-10 04:33N 53°30' E 009°57'0 0.0
2014-Nov-10 03:33N 53°30' E 009°57'0 0.0
2014-Nov-10 02:34N 53°30' E 009°57'0 0.0
2014-Nov-10 01:27N 53°30' E 009°57'0 0.0
2014-Nov-10 00:31N 53°30' E 009°57'0 0.0
2014-Nov-09 23:33N 53°30' E 009°57'0 0.0
2014-Nov-09 22:18N 53°30' E 009°57'0 0.0
2014-Nov-09 21:31N 53°30' E 009°57'0 0.0
2014-Nov-09 20:31N 53°30' E 009°57'0 0.0
2014-Nov-09 19:18N 53°30' E 009°57'0 0.0
2014-Nov-09 18:31N 53°30' E 009°57'0 0.0
2014-Nov-09 17:33N 53°30' E 009°57'0 0.0
2014-Nov-09 15:33N 53°30' E 009°57'0 0.0
2014-Nov-09 14:24N 53°30' E 009°57'0 0.0
2014-Nov-09 13:31N 53°30' E 009°57'0 0.0
2014-Nov-09 12:27N 53°30' E 009°57'0 0.0
2014-Nov-09 11:21N 53°30' E 009°57'0 0.0
2014-Nov-09 10:31N 53°30' E 009°57'0 0.0
2014-Nov-09 09:31N 53°30' E 009°57'0 0.0
2014-Nov-09 08:33N 53°30' E 009°57'0 0.0
2014-Nov-09 07:34N 53°30' E 009°57'1 1.1
2014-Nov-09 06:33N 53°31' E 009°56'6 6.2
2014-Nov-09 05:33N 53°33' E 009°47'9 9.4
2014-Nov-09 04:33N 53°37' E 009°32'1110.8
2014-Nov-09 03:33N 53°47' E 009°23'1211.5
2014-Nov-09 02:33N 53°53' E 009°06'1212.4
2014-Nov-09 01:33N 53°51' E 008°46'1313.1
2014-Nov-09 00:34N 53°59' E 008°27'1413.7
2014-Nov-08 23:33N 53°59' E 008°04'1312.6
2014-Nov-08 22:33N 54°06' E 007°46'1312.8
2014-Nov-08 21:33N 54°16' E 007°33'1312.8
2014-Nov-08 20:33N 54°27' E 007°21'1212.3
2014-Nov-08 19:34N 54°38' E 007°10'1211.7
2014-Nov-08 18:33N 54°48' E 007°00'1111.3
2014-Nov-08 17:33N 54°57' E 006°50'1212.4
2014-Nov-08 16:34N 55°10' E 006°50'1110.6
2014-Nov-08 15:33N 55°20' E 006°50'18710.3
2014-Nov-07 21:23N 57°49' E 010°14'1214.1
2014-Nov-07 20:33N 57°49' E 010°36'8 8.1
2014-Nov-07 19:33N 57°44' E 010°48'1010.3
2014-Nov-07 18:33N 57°39' E 011°05'1414.0
2014-Nov-07 17:33N 57°30' E 011°24'1413.5
2014-Nov-07 16:33N 57°17' E 011°34'15711.7
2014-Nov-07 03:06N 54°42' E 010°47'4312.1
2014-Nov-06 23:33N 54°26' E 011°55'9012.3
2014-Nov-06 16:13N 55°10' E 014°11'1013.1
2014-Nov-06 15:29N 55°17' E 014°22'1213.0
2014-Nov-06 14:33N 55°26' E 014°37'1412.9
2014-Nov-06 13:27N 55°34' E 014°58'4013.6
2014-Nov-06 10:29N 55°54' E 016°00'32213.3
2014-Nov-05 10:16N 59°37' E 023°16'1013.8
2014-Nov-05 09:32N 59°40' E 023°35'1413.8
2014-Nov-05 08:33N 59°43' E 024°01'1513.7
2014-Nov-05 07:25N 59°47' E 024°30'5013.0
2014-Nov-05 03:33N 59°58' E 026°08'1312.5
2014-Nov-05 02:32N 60°01' E 026°33'  
Track history (hours):
 
Tides and Currents Weather Stations Pressure Air Temp Water Temp Dewpoint Dewpoint Depression Visibility Wind Speed Wind Dir Waves Ship Positions

Seacod

Last reported at 2014-Nov-12 18:32 UTC. Time now 2014-Nov-23 01:00 UTC.
Position N 57°04' E 011°40'.
Warning: this ship's position is 10 days out of date.

Length 188 m; draft 7.3 m.

Type: Ship. MMSI: 218019000.

Date/timePositionNaut miles runAvg speedWind from/ knotsBaromVisibWave heightAir tempDewpointWater temp
2014-Nov-12 18:32N 57°04' E 011°40'10 8.6
2014-Nov-12 17:20N 57°14' E 011°33'7 8.7
2014-Nov-12 16:33N 57°20' E 011°29'10 9.6
2014-Nov-12 15:33N 57°29' E 011°21'1212.1
2014-Nov-12 14:33N 57°37' E 011°05'1312.6
2014-Nov-12 13:33N 57°46' E 010°48'1212.0
2014-Nov-12 12:33N 57°48' E 010°26'1212.4
2014-Nov-12 11:33N 57°48' E 010°03'16111.3
2014-Nov-11 21:15N 55°42' E 006°59'912.2
2014-Nov-11 20:33N 55°34' E 006°55'1212.2
2014-Nov-11 19:33N 55°22' E 006°50'1312.9
2014-Nov-11 18:33N 55°09' E 006°50'1312.9
2014-Nov-11 17:33N 54°56' E 006°51'1614.2
2014-Nov-11 16:27N 54°43' E 007°05'1314.4
2014-Nov-11 15:34N 54°32' E 007°17'1414.4
2014-Nov-11 14:33N 54°20' E 007°30'1413.7
2014-Nov-11 13:33N 54°10' E 007°46'1313.1
2014-Nov-11 12:33N 54°02' E 008°04'1212.1
2014-Nov-11 11:33N 53°59' E 008°24'1211.8
2014-Nov-11 10:34N 53°54' E 008°42'1514.5
2014-Nov-11 09:34N 53°53' E 009°06'1313.3
2014-Nov-11 08:33N 53°45' E 009°25'1515.2
2014-Nov-11 07:34N 53°34' E 009°42'9 9.3
2014-Nov-11 06:33N 53°31' E 009°57'1 0.7
2014-Nov-11 05:33N 53°30' E 009°58'0 0.0
2014-Nov-11 04:33N 53°30' E 009°58'0 0.0
2014-Nov-11 03:33N 53°30' E 009°58'0 0.0
2014-Nov-11 02:33N 53°30' E 009°58'0 0.0
2014-Nov-11 01:33N 53°30' E 009°58'0 0.0
2014-Nov-11 00:33N 53°30' E 009°58'0 0.0
2014-Nov-10 23:33N 53°30' E 009°58'0 0.0
2014-Nov-10 22:33N 53°30' E 009°58'0 0.0
2014-Nov-10 21:33N 53°30' E 009°58'0 0.0
2014-Nov-10 20:33N 53°30' E 009°58'0 0.0
2014-Nov-10 19:33N 53°30' E 009°58'0 0.0
2014-Nov-10 18:33N 53°30' E 009°58'0 0.0
2014-Nov-10 17:33N 53°30' E 009°58'0 0.4
2014-Nov-10 16:33N 53°30' E 009°57'0 0.0
2014-Nov-10 15:28N 53°30' E 009°57'0 0.0
2014-Nov-10 14:27N 53°30' E 009°57'0 0.0
2014-Nov-10 13:27N 53°30' E 009°57'0 0.0
2014-Nov-10 12:18N 53°30' E 009°57'0 0.0
2014-Nov-10 11:25N 53°30' E 009°57'0 0.0
2014-Nov-10 10:33N 53°30' E 009°57'0 0.0
2014-Nov-10 09:21N 53°30' E 009°57'0 0.0
2014-Nov-10 08:31N 53°30' E 009°57'0 0.0
2014-Nov-10 07:34N 53°30' E 009°57'0 0.0
2014-Nov-10 06:33N 53°30' E 009°57'0 0.0
2014-Nov-10 05:33N 53°30' E 009°57'0 0.0
2014-Nov-10 04:33N 53°30' E 009°57'0 0.0
2014-Nov-10 03:33N 53°30' E 009°57'0 0.0
2014-Nov-10 02:34N 53°30' E 009°57'0 0.0
2014-Nov-10 01:27N 53°30' E 009°57'0 0.0
2014-Nov-10 00:31N 53°30' E 009°57'0 0.0
2014-Nov-09 23:33N 53°30' E 009°57'0 0.0
2014-Nov-09 22:18N 53°30' E 009°57'0 0.0
2014-Nov-09 21:31N 53°30' E 009°57'0 0.0
2014-Nov-09 20:31N 53°30' E 009°57'0 0.0
2014-Nov-09 19:18N 53°30' E 009°57'0 0.0
2014-Nov-09 18:31N 53°30' E 009°57'0 0.0
2014-Nov-09 17:33N 53°30' E 009°57'0 0.0
2014-Nov-09 15:33N 53°30' E 009°57'0 0.0
2014-Nov-09 14:24N 53°30' E 009°57'0 0.0
2014-Nov-09 13:31N 53°30' E 009°57'0 0.0
2014-Nov-09 12:27N 53°30' E 009°57'0 0.0
2014-Nov-09 11:21N 53°30' E 009°57'0 0.0
2014-Nov-09 10:31N 53°30' E 009°57'0 0.0
2014-Nov-09 09:31N 53°30' E 009°57'0 0.0
2014-Nov-09 08:33N 53°30' E 009°57'0 0.0
2014-Nov-09 07:34N 53°30' E 009°57'1 1.1
2014-Nov-09 06:33N 53°31' E 009°56'6 6.2
2014-Nov-09 05:33N 53°33' E 009°47'9 9.4
2014-Nov-09 04:33N 53°37' E 009°32'1110.8
2014-Nov-09 03:33N 53°47' E 009°23'1211.5
2014-Nov-09 02:33N 53°53' E 009°06'1212.4
2014-Nov-09 01:33N 53°51' E 008°46'1313.1
2014-Nov-09 00:34N 53°59' E 008°27'1413.7
2014-Nov-08 23:33N 53°59' E 008°04'1312.6
2014-Nov-08 22:33N 54°06' E 007°46'1312.8
2014-Nov-08 21:33N 54°16' E 007°33'1312.8
2014-Nov-08 20:33N 54°27' E 007°21'1212.3
2014-Nov-08 19:34N 54°38' E 007°10'1211.7
2014-Nov-08 18:33N 54°48' E 007°00'1111.3
2014-Nov-08 17:33N 54°57' E 006°50'1212.4
2014-Nov-08 16:34N 55°10' E 006°50'1110.6
2014-Nov-08 15:33N 55°20' E 006°50'18710.3
2014-Nov-07 21:23N 57°49' E 010°14'1214.1
2014-Nov-07 20:33N 57°49' E 010°36'8 8.1
2014-Nov-07 19:33N 57°44' E 010°48'1010.3
2014-Nov-07 18:33N 57°39' E 011°05'1414.0
2014-Nov-07 17:33N 57°30' E 011°24'1413.5
2014-Nov-07 16:33N 57°17' E 011°34'15711.7
2014-Nov-07 03:06N 54°42' E 010°47'4312.1
2014-Nov-06 23:33N 54°26' E 011°55'9012.3
2014-Nov-06 16:13N 55°10' E 014°11'1013.1
2014-Nov-06 15:29N 55°17' E 014°22'1213.0
2014-Nov-06 14:33N 55°26' E 014°37'1412.9
2014-Nov-06 13:27N 55°34' E 014°58'4013.6
2014-Nov-06 10:29N 55°54' E 016°00'32213.3
2014-Nov-05 10:16N 59°37' E 023°16'1013.8
2014-Nov-05 09:32N 59°40' E 023°35'1413.8
2014-Nov-05 08:33N 59°43' E 024°01'1513.7
2014-Nov-05 07:25N 59°47' E 024°30'5013.0
2014-Nov-05 03:33N 59°58' E 026°08'1312.5
2014-Nov-05 02:32N 60°01' E 026°33'  

Dump ship's entire track history